Time;durP1;ratioP1;P1;durP2;ratioP2;P2;SDS_P1;SDS_P2;PMS_P1;PMS_P2;Temp;Humidity;BMP_temperature;BMP_pressure;BME280_temperature;BME280_humidity;BME280_pressure;Samples;Min_cycle;Max_cycle;Signal;HPM_P1;HPM_P2
2021/12/16 00:09:42;;;;;;;87.55;40.20;;;9.90;99.90;;;;;;4864048;29;20510;-79
2021/12/16 00:34:16;;;;;;;76.07;36.08;;;9.90;99.90;;;;;;4880651;29;20062;-81
2021/12/16 00:36:44;;;;;;;77.65;35.72;;;9.80;99.90;;;;;;4896647;29;20392;-78
2021/12/16 00:39:14;;;;;;;72.95;33.53;;;9.80;99.90;;;;;;4876678;29;20043;-80
2021/12/16 00:41:43;;;;;;;75.35;34.38;;;9.80;99.90;;;;;;4917587;29;20024;-79
2021/12/16 00:47:00;;;;;;;77.60;37.67;;;9.90;99.90;;;;;;4917201;29;20040;-79
2021/12/16 00:54:44;;;;;;;83.57;39.00;;;9.80;99.90;;;;;;4901826;29;20047;-80
2021/12/16 00:57:14;;;;;;;78.10;35.60;;;9.80;99.90;;;;;;4885121;29;20036;-79
2021/12/16 00:59:45;;;;;;;81.78;38.17;;;9.80;99.90;;;;;;4899323;29;20032;-79
2021/12/16 01:35:57;;;;;;;76.13;34.50;;;9.60;99.90;;;;;;4890809;29;20052;-79
2021/12/16 01:59:44;;;;;;;83.10;35.08;;;9.60;99.90;;;;;;4889800;29;20044;-79
2021/12/16 02:02:58;;;;;;;85.25;36.33;;;9.60;99.90;;;;;;4876539;29;20051;-79
2021/12/16 02:08:19;;;;;;;78.88;34.50;;;9.60;99.90;;;;;;4915331;29;20032;-79
2021/12/16 02:11:00;;;;;;;88.57;37.95;;;9.60;99.90;;;;;;4876081;29;20039;-79
2021/12/16 02:33:09;;;;;;;75.85;33.92;;;9.60;99.90;;;;;;4892676;29;20047;-79
2021/12/16 02:35:44;;;;;;;78.55;34.30;;;9.50;99.90;;;;;;4888354;29;20044;-79
2021/12/16 02:38:13;;;;;;;77.10;35.72;;;9.60;99.90;;;;;;4896843;29;20046;-79
2021/12/16 02:40:41;;;;;;;79.40;33.85;;;9.50;99.90;;;;;;4892677;29;20129;-79
2021/12/16 02:48:37;;;;;;;85.03;38.50;;;9.50;99.90;;;;;;4886266;29;20047;-79
2021/12/16 02:51:15;;;;;;;81.43;34.22;;;9.40;99.90;;;;;;4891423;29;20051;-79
2021/12/16 02:53:45;;;;;;;78.40;35.45;;;9.40;99.90;;;;;;4890297;29;20040;-79
2021/12/16 02:56:12;;;;;;;81.95;37.58;;;9.40;99.90;;;;;;4893312;29;20032;-79
2021/12/16 02:58:43;;;;;;;76.00;33.55;;;9.30;99.90;;;;;;4888142;29;20043;-79
2021/12/16 03:01:30;;;;;;;77.45;34.13;;;9.30;99.90;;;;;;4887024;29;20039;-79
2021/12/16 03:03:59;;;;;;;79.03;35.63;;;9.30;99.90;;;;;;4875538;29;20063;-79
2021/12/16 03:06:28;;;;;;;84.15;34.95;;;9.20;99.90;;;;;;4891111;29;20044;-79
2021/12/16 03:08:56;;;;;;;70.82;32.55;;;9.20;99.90;;;;;;4915732;29;20511;-79
2021/12/16 03:11:33;;;;;;;77.68;35.17;;;9.20;99.90;;;;;;4874127;29;20403;-79
2021/12/16 03:16:58;;;;;;;73.93;33.38;;;9.20;99.90;;;;;;4890596;29;20069;-79
2021/12/16 03:21:57;;;;;;;73.80;33.00;;;9.10;99.90;;;;;;4870373;29;20044;-79
2021/12/16 03:35:34;;;;;;;78.20;33.30;;;9.10;99.90;;;;;;4877400;29;20047;-79
2021/12/16 03:38:07;;;;;;;75.85;31.88;;;9.10;99.90;;;;;;4909390;29;20542;-79
2021/12/16 03:40:34;;;;;;;73.93;32.90;;;9.10;99.90;;;;;;4857894;29;20044;-80
2021/12/16 03:43:11;;;;;;;78.78;33.20;;;9.10;99.90;;;;;;4890053;29;20071;-79
2021/12/16 03:48:39;;;;;;;80.15;32.63;;;9.10;99.90;;;;;;4888164;29;21480;-79
2021/12/16 03:51:18;;;;;;;77.00;34.67;;;9.20;99.90;;;;;;4889263;29;20028;-79
2021/12/16 03:53:49;;;;;;;85.00;36.25;;;9.20;99.90;;;;;;4881878;29;20052;-79
2021/12/16 03:56:20;;;;;;;86.95;37.08;;;9.20;99.90;;;;;;4896326;29;20059;-79
2021/12/16 03:59:08;;;;;;;66.15;30.77;;;9.10;99.90;;;;;;4912193;29;20041;-78
2021/12/16 04:01:46;;;;;;;66.20;31.42;;;9.20;99.90;;;;;;4875158;29;20040;-79
2021/12/16 04:04:18;;;;;;;98.38;42.08;;;9.20;99.90;;;;;;4862870;29;20049;-79
2021/12/16 04:06:45;;;;;;;80.40;37.97;;;9.20;99.90;;;;;;4892500;29;20056;-79
2021/12/16 04:09:15;;;;;;;82.57;34.88;;;9.20;99.90;;;;;;4870600;29;20491;-79
2021/12/16 04:12:03;;;;;;;83.18;35.20;;;9.20;99.90;;;;;;4886485;29;20526;-79
2021/12/16 04:14:31;;;;;;;71.07;31.90;;;9.20;99.90;;;;;;4873507;29;20060;-79
2021/12/16 04:17:02;;;;;;;79.40;33.35;;;9.20;99.90;;;;;;4882446;29;20052;-79
2021/12/16 04:19:36;;;;;;;72.30;32.40;;;9.20;99.90;;;;;;4879837;29;20409;-79
2021/12/16 04:22:09;;;;;;;92.32;35.95;;;9.20;99.90;;;;;;4862007;29;20496;-79
2021/12/16 04:24:39;;;;;;;81.80;34.97;;;9.10;99.90;;;;;;4891545;29;20040;-79
2021/12/16 04:27:07;;;;;;;80.68;33.30;;;9.10;99.90;;;;;;4892559;29;20100;-79
2021/12/16 04:29:37;;;;;;;89.60;34.10;;;9.10;99.90;;;;;;4890699;29;20484;-79
2021/12/16 04:32:05;;;;;;;77.47;30.63;;;9.10;99.90;;;;;;4891884;29;20043;-79
2021/12/16 04:34:33;;;;;;;97.85;36.55;;;9.10;99.90;;;;;;4911186;29;20039;-79
2021/12/16 04:37:03;;;;;;;88.90;36.08;;;9.10;99.90;;;;;;4904040;29;20039;-79
2021/12/16 04:39:32;;;;;;;76.95;32.35;;;9.10;99.90;;;;;;4912996;29;20420;-79
2021/12/16 04:41:59;;;;;;;80.95;33.70;;;9.10;99.90;;;;;;4874215;29;20055;-79
2021/12/16 04:44:27;;;;;;;82.55;34.53;;;9.10;99.90;;;;;;4883586;29;20036;-78
2021/12/16 04:46:56;;;;;;;69.43;30.05;;;9.10;99.90;;;;;;4874399;29;20531;-79
2021/12/16 04:49:24;;;;;;;87.63;35.45;;;9.10;99.90;;;;;;4883403;29;20045;-79
2021/12/16 04:51:54;;;;;;;94.05;36.05;;;9.20;99.90;;;;;;4891236;29;20043;-79
2021/12/16 04:54:24;;;;;;;90.72;36.78;;;9.20;99.90;;;;;;4892327;29;20399;-79
2021/12/16 04:56:53;;;;;;;102.72;39.83;;;9.20;99.90;;;;;;4882927;29;20020;-79
2021/12/16 04:59:21;;;;;;;83.57;36.38;;;9.20;99.90;;;;;;4879394;29;20052;-79
2021/12/16 05:01:53;;;;;;;78.65;32.92;;;9.20;99.90;;;;;;4891188;29;20044;-79
2021/12/16 05:04:32;;;;;;;77.60;31.45;;;9.20;99.90;;;;;;4889601;29;20044;-79
2021/12/16 05:06:59;;;;;;;79.65;32.58;;;9.30;99.90;;;;;;4894294;29;20043;-79
2021/12/16 05:12:12;;;;;;;68.07;30.08;;;9.30;99.90;;;;;;4876665;29;20052;-79
2021/12/16 05:14:39;;;;;;;77.30;32.10;;;9.30;99.90;;;;;;4879425;29;20075;-79
2021/12/16 05:17:12;;;;;;;91.00;34.70;;;9.30;99.90;;;;;;4876718;29;20036;-79
2021/12/16 05:19:44;;;;;;;77.70;32.50;;;9.30;99.90;;;;;;4881614;29;20040;-79
2021/12/16 05:25:07;;;;;;;76.55;30.25;;;9.30;99.90;;;;;;4869635;29;20056;-79
2021/12/16 05:27:34;;;;;;;81.90;33.25;;;9.30;99.90;;;;;;4907910;29;20044;-79
2021/12/16 05:30:02;;;;;;;85.95;31.55;;;9.30;99.90;;;;;;4879365;29;20047;-79
2021/12/16 05:32:28;;;;;;;81.63;33.35;;;9.40;99.90;;;;;;4874796;29;20047;-79
2021/12/16 05:34:56;;;;;;;73.30;30.05;;;9.40;99.90;;;;;;4877741;29;20043;-79
2021/12/16 05:37:23;;;;;;;75.85;29.25;;;9.40;99.90;;;;;;4894440;29;20397;-79
2021/12/16 05:39:49;;;;;;;67.55;27.75;;;9.40;99.90;;;;;;4886516;29;20048;-79
2021/12/16 05:42:45;;;;;;;83.55;31.23;;;9.40;99.90;;;;;;4899981;29;20058;-79
2021/12/16 05:45:12;;;;;;;75.93;31.17;;;9.40;99.90;;;;;;4883574;29;20047;-77
2021/12/16 05:47:39;;;;;;;68.38;27.95;;;9.40;99.90;;;;;;4892853;29;20039;-79
2021/12/16 05:50:08;;;;;;;65.63;27.73;;;9.40;99.90;;;;;;4882761;29;20051;-79
2021/12/16 05:52:35;;;;;;;81.15;29.35;;;9.40;99.90;;;;;;4877059;29;20051;-79
2021/12/16 05:55:02;;;;;;;84.72;30.08;;;9.40;99.90;;;;;;4896026;29;20470;-79
2021/12/16 05:57:47;;;;;;;78.80;29.50;;;9.40;99.90;;;;;;4879197;29;20044;-79
2021/12/16 06:00:20;;;;;;;75.03;27.45;;;9.40;99.90;;;;;;4887394;29;20040;-79
2021/12/16 06:02:50;;;;;;;79.03;29.63;;;9.40;99.90;;;;;;4874292;29;20043;-79
2021/12/16 06:05:18;;;;;;;80.65;31.02;;;9.50;99.90;;;;;;4893784;29;20040;-79
2021/12/16 06:07:45;;;;;;;90.55;31.13;;;9.40;99.90;;;;;;4888678;29;20037;-79
2021/12/16 06:10:44;;;;;;;79.28;31.33;;;9.40;99.90;;;;;;4887326;29;20044;-79
2021/12/16 06:13:02;;;;;;;92.30;32.55;;;9.40;99.90;;;;;;4886374;29;20044;-79
2021/12/16 06:29:39;;;;;;;87.63;27.10;;;9.40;99.90;;;;;;4861489;29;20059;-79
2021/12/16 06:32:06;;;;;;;101.30;29.13;;;9.40;99.90;;;;;;4887399;29;20041;-79
2021/12/16 06:34:32;;;;;;;73.20;26.88;;;9.40;99.90;;;;;;4890927;29;20044;-79
2021/12/16 06:36:59;;;;;;;88.80;29.05;;;9.40;99.90;;;;;;4914328;29;20032;-79
2021/12/16 06:39:25;;;;;;;67.32;25.23;;;9.30;99.90;;;;;;4875548;29;20040;-79
2021/12/16 06:42:11;;;;;;;96.78;28.83;;;9.40;99.90;;;;;;4916288;29;20036;-79
2021/12/16 06:44:56;;;;;;;78.32;26.75;;;9.40;99.90;;;;;;4888754;29;20044;-79
2021/12/16 06:47:32;;;;;;;68.28;23.42;;;9.40;99.90;;;;;;4896363;29;20039;-79
2021/12/16 06:49:58;;;;;;;108.03;27.40;;;9.40;99.90;;;;;;4894204;29;20487;-79
2021/12/16 06:52:33;;;;;;;70.03;26.63;;;9.40;99.90;;;;;;4894469;29;20499;-79
2021/12/16 06:55:24;;;;;;;117.03;27.90;;;9.30;99.90;;;;;;4895047;29;20048;-79
2021/12/16 06:57:55;;;;;;;111.07;27.80;;;9.30;99.90;;;;;;4882475;29;20043;-78
2021/12/16 07:00:42;;;;;;;93.13;26.20;;;9.40;99.90;;;;;;4892397;29;20436;-78
2021/12/16 07:03:18;;;;;;;91.72;26.92;;;9.40;99.90;;;;;;4915151;29;20450;-78
2021/12/16 07:05:46;;;;;;;65.05;23.50;;;9.40;99.90;;;;;;4895344;29;20051;-78
2021/12/16 07:08:17;;;;;;;92.97;25.45;;;9.40;99.90;;;;;;4894418;29;20040;-78
2021/12/16 07:10:49;;;;;;;79.82;26.38;;;9.40;99.90;;;;;;4892592;29;20075;-78
2021/12/16 07:13:29;;;;;;;73.03;23.67;;;9.30;99.90;;;;;;4895534;29;20047;-78
2021/12/16 07:15:57;;;;;;;91.80;27.85;;;9.30;99.90;;;;;;4912236;29;20388;-79
2021/12/16 07:18:24;;;;;;;71.50;24.92;;;9.30;99.90;;;;;;4891036;29;20384;-79
2021/12/16 07:20:51;;;;;;;97.95;26.15;;;9.30;99.90;;;;;;4893956;29;20608;-79
2021/12/16 07:23:17;;;;;;;92.82;26.92;;;9.30;99.90;;;;;;4896389;29;20056;-79
2021/12/16 07:25:43;;;;;;;90.10;25.30;;;9.30;99.90;;;;;;4896277;29;20480;-79
2021/12/16 07:28:10;;;;;;;74.05;24.90;;;9.30;99.90;;;;;;4880474;29;20044;-79
2021/12/16 07:30:40;;;;;;;68.13;22.58;;;9.30;99.90;;;;;;4911857;29;20044;-79
2021/12/16 07:33:07;;;;;;;62.72;22.38;;;9.30;99.90;;;;;;4895475;29;20036;-79
2021/12/16 07:35:35;;;;;;;69.53;25.15;;;9.30;99.90;;;;;;4885152;29;20040;-79
2021/12/16 07:38:04;;;;;;;65.82;23.38;;;9.30;99.90;;;;;;4880988;29;20471;-79
2021/12/16 07:40:34;;;;;;;95.70;25.45;;;9.40;99.90;;;;;;4890934;29;20051;-79
2021/12/16 07:45:38;;;;;;;80.57;24.63;;;9.40;99.90;;;;;;4886487;29;20052;-77
2021/12/16 07:48:04;;;;;;;85.35;26.73;;;9.40;99.90;;;;;;4897403;29;20024;-79
2021/12/16 07:50:32;;;;;;;81.90;24.55;;;9.40;99.90;;;;;;4854897;29;20403;-79
2021/12/16 07:52:58;;;;;;;132.98;25.60;;;9.40;99.90;;;;;;4869774;29;20044;-79
2021/12/16 07:55:24;;;;;;;88.45;25.42;;;9.40;99.90;;;;;;4873976;29;20496;-79
2021/12/16 07:57:51;;;;;;;128.95;25.60;;;9.40;99.90;;;;;;4844995;29;20348;-79
2021/12/16 08:00:25;;;;;;;145.07;26.60;;;9.40;99.90;;;;;;4885729;29;20041;-79
2021/12/16 08:02:52;;;;;;;69.80;23.70;;;9.40;99.90;;;;;;4900829;29;20039;-78
2021/12/16 08:05:21;;;;;;;81.50;26.27;;;9.40;99.90;;;;;;4900199;29;20040;-80
2021/12/16 08:07:48;;;;;;;135.32;26.83;;;9.40;99.90;;;;;;4897718;29;20477;-80
2021/12/16 08:10:18;;;;;;;109.70;27.45;;;9.40;99.90;;;;;;4894760;29;20060;-79
2021/12/16 08:12:45;;;;;;;108.80;26.58;;;9.50;99.90;;;;;;4884686;29;20036;-80
2021/12/16 08:15:14;;;;;;;82.97;26.70;;;9.50;99.90;;;;;;4904231;29;20036;-80
2021/12/16 08:17:42;;;;;;;82.50;25.42;;;9.50;99.90;;;;;;4899517;29;20044;-80
2021/12/16 08:20:11;;;;;;;112.25;26.27;;;9.50;99.90;;;;;;4884372;29;20044;-80
2021/12/16 08:22:37;;;;;;;76.15;24.58;;;9.50;99.90;;;;;;4900029;29;20041;-80
2021/12/16 08:25:05;;;;;;;117.40;28.67;;;9.50;99.90;;;;;;4888332;29;20044;-80
2021/12/16 08:27:33;;;;;;;114.13;27.77;;;9.60;99.90;;;;;;4884223;29;20487;-80
2021/12/16 08:30:00;;;;;;;103.95;27.10;;;9.60;99.90;;;;;;4901664;29;20048;-80
2021/12/16 08:32:26;;;;;;;68.80;27.83;;;9.60;99.90;;;;;;4875202;29;20055;-80
2021/12/16 08:34:52;;;;;;;90.55;24.83;;;9.60;99.90;;;;;;4907465;29;20051;-79
2021/12/16 08:37:24;;;;;;;71.32;25.73;;;9.60;99.90;;;;;;4876401;29;20047;-79
2021/12/16 08:39:51;;;;;;;75.88;25.27;;;9.60;99.90;;;;;;4872451;29;20044;-78
2021/12/16 08:42:18;;;;;;;92.55;23.92;;;9.60;99.90;;;;;;4891074;29;20480;-78
2021/12/16 08:44:44;;;;;;;81.85;24.13;;;9.60;99.90;;;;;;4890733;29;20048;-78
2021/12/16 08:47:15;;;;;;;97.45;24.27;;;9.60;99.90;;;;;;4891212;29;20044;-78
2021/12/16 08:49:42;;;;;;;107.47;25.00;;;9.60;99.90;;;;;;4905174;29;20039;-78
2021/12/16 08:52:13;;;;;;;110.50;27.33;;;9.70;99.90;;;;;;4888127;29;20048;-78
2021/12/16 08:54:40;;;;;;;79.68;26.23;;;9.70;99.90;;;;;;4894595;29;20047;-78
2021/12/16 08:57:07;;;;;;;79.15;25.17;;;9.70;99.90;;;;;;4895862;29;20395;-78
2021/12/16 08:59:34;;;;;;;87.22;25.15;;;9.70;99.90;;;;;;4899380;29;20044;-80
2021/12/16 09:02:04;;;;;;;44.72;18.85;;;9.70;99.90;;;;;;4890864;29;20388;-78
2021/12/16 09:04:31;;;;;;;80.68;25.52;;;9.80;99.90;;;;;;4891164;29;20503;-79
2021/12/16 09:07:02;;;;;;;68.75;23.95;;;9.80;99.90;;;;;;4890505;29;20032;-79
2021/12/16 09:09:34;;;;;;;83.47;28.55;;;9.80;99.90;;;;;;4886756;29;20047;-81
2021/12/16 09:14:36;;;;;;;83.82;24.38;;;9.80;99.90;;;;;;4893457;29;20043;-78
2021/12/16 09:17:10;;;;;;;80.65;23.92;;;9.90;99.90;;;;;;4891583;29;20032;-79
2021/12/16 09:19:39;;;;;;;101.70;21.95;;;9.90;99.90;;;;;;4888975;29;20037;-79
2021/12/16 09:22:06;;;;;;;78.05;23.58;;;9.90;99.90;;;;;;4890725;29;20037;-78
2021/12/16 09:24:34;;;;;;;66.45;21.40;;;9.90;99.90;;;;;;4908913;29;20506;-78
2021/12/16 09:27:01;;;;;;;78.82;22.08;;;9.90;99.90;;;;;;4910855;29;20028;-78
2021/12/16 09:29:27;;;;;;;69.78;22.00;;;10.00;99.90;;;;;;4908094;29;20514;-76
2021/12/16 09:31:54;;;;;;;73.03;23.38;;;10.00;99.90;;;;;;4890193;29;20044;-77
2021/12/16 09:34:20;;;;;;;63.75;24.02;;;10.10;99.90;;;;;;4875220;29;20044;-77
2021/12/16 09:36:47;;;;;;;65.47;24.27;;;10.10;99.90;;;;;;4909395;29;20035;-77
2021/12/16 09:39:17;;;;;;;75.10;27.60;;;10.10;99.90;;;;;;4905495;29;20028;-77
2021/12/16 09:41:47;;;;;;;66.13;25.98;;;10.10;99.90;;;;;;4886311;29;20409;-77
2021/12/16 09:44:15;;;;;;;62.15;25.92;;;10.10;99.90;;;;;;4892391;29;20029;-76
2021/12/16 09:46:44;;;;;;;79.72;25.90;;;10.10;99.90;;;;;;4913805;29;20039;-76
2021/12/16 09:49:12;;;;;;;80.55;25.33;;;10.10;99.90;;;;;;4908315;29;20518;-77
2021/12/16 09:51:41;;;;;;;63.08;23.75;;;10.10;99.90;;;;;;4892541;29;20052;-77
2021/12/16 09:54:11;;;;;;;71.32;24.25;;;10.10;99.90;;;;;;4908056;29;20044;-77
2021/12/16 09:56:40;;;;;;;84.28;24.67;;;10.20;99.90;;;;;;4894310;29;20059;-76
2021/12/16 09:59:10;;;;;;;59.30;24.20;;;10.20;99.90;;;;;;4887473;29;20039;-77
2021/12/16 10:01:37;;;;;;;60.90;24.33;;;10.20;99.90;;;;;;4890753;29;20040;-77
2021/12/16 10:04:06;;;;;;;69.07;24.00;;;10.20;99.90;;;;;;4910942;29;20044;-77
2021/12/16 10:06:36;;;;;;;66.18;24.85;;;10.30;99.90;;;;;;4889622;29;20040;-77
2021/12/16 10:09:06;;;;;;;69.78;24.63;;;10.30;99.90;;;;;;4873836;29;20488;-77
2021/12/16 10:11:35;;;;;;;105.45;25.23;;;10.30;99.90;;;;;;4886220;29;20059;-76
2021/12/16 10:19:19;;;;;;;57.63;22.70;;;10.40;99.90;;;;;;4906319;29;20391;-77
2021/12/16 10:21:46;;;;;;;56.53;23.38;;;10.40;99.90;;;;;;4908848;29;20029;-76
2021/12/16 10:24:24;;;;;;;57.25;23.52;;;10.40;99.90;;;;;;4892146;29;20044;-77
2021/12/16 10:27:14;;;;;;;50.58;23.10;;;10.50;99.90;;;;;;4892708;29;20044;-76
2021/12/16 10:29:46;;;;;;;67.75;24.75;;;10.50;99.90;;;;;;4887465;29;20036;-77
2021/12/16 10:32:42;;;;;;;56.27;23.23;;;10.50;99.90;;;;;;4909110;29;20049;-77
2021/12/16 10:35:11;;;;;;;56.10;24.55;;;10.50;99.90;;;;;;4907381;29;20036;-77
2021/12/16 10:37:45;;;;;;;56.35;23.35;;;10.50;99.90;;;;;;4905358;29;20039;-76
2021/12/16 10:40:30;;;;;;;54.47;22.98;;;10.50;99.90;;;;;;4905547;29;20511;-77
2021/12/16 10:43:00;;;;;;;57.80;25.73;;;10.50;99.90;;;;;;4884345;29;20063;-77
2021/12/16 10:45:35;;;;;;;54.97;24.48;;;10.50;99.90;;;;;;4885034;29;20243;-77
2021/12/16 10:48:25;;;;;;;52.72;23.23;;;10.50;99.90;;;;;;4886446;29;20274;-77
2021/12/16 10:51:08;;;;;;;51.10;22.13;;;10.50;99.90;;;;;;4882634;29;20043;-77
2021/12/16 10:53:42;;;;;;;47.78;22.33;;;10.50;99.90;;;;;;4887509;29;20047;-77
2021/12/16 10:56:09;;;;;;;50.40;21.90;;;10.50;99.90;;;;;;4906526;29;20040;-77
2021/12/16 10:58:48;;;;;;;48.65;24.55;;;10.50;99.90;;;;;;4868900;29;20713;-77
2021/12/16 11:01:46;;;;;;;51.00;23.98;;;10.50;99.90;;;;;;4905367;29;20032;-77
2021/12/16 11:04:22;;;;;;;51.80;23.20;;;10.50;99.90;;;;;;4885566;29;20042;-76
2021/12/16 11:06:54;;;;;;;55.25;23.15;;;10.50;99.90;;;;;;4887443;29;20039;-77
2021/12/16 11:09:31;;;;;;;45.45;22.73;;;10.50;99.90;;;;;;4898450;29;20028;-77
2021/12/16 11:12:13;;;;;;;53.33;23.42;;;10.50;99.90;;;;;;4904397;29;20043;-77
2021/12/16 11:14:44;;;;;;;49.15;22.05;;;10.60;99.90;;;;;;4883055;29;20400;-77
2021/12/16 11:17:14;;;;;;;43.60;22.23;;;10.60;99.90;;;;;;4887328;29;20043;-77
2021/12/16 11:19:45;;;;;;;52.42;22.73;;;10.60;99.90;;;;;;4877130;29;20040;-76
2021/12/16 11:22:14;;;;;;;55.17;23.48;;;10.60;99.90;;;;;;4883478;29;20032;-77
2021/12/16 11:24:40;;;;;;;46.78;21.38;;;10.60;99.90;;;;;;4899988;29;20039;-77
2021/12/16 11:27:24;;;;;;;56.67;23.27;;;10.60;99.90;;;;;;4883847;29;20040;-78
2021/12/16 11:29:51;;;;;;;41.95;21.90;;;10.50;99.90;;;;;;4879127;29;20037;-78
2021/12/16 11:32:40;;;;;;;43.65;21.33;;;10.50;99.90;;;;;;4868960;29;20051;-77
2021/12/16 11:35:24;;;;;;;46.03;20.83;;;10.50;99.90;;;;;;4909659;29;20032;-77
2021/12/16 11:37:50;;;;;;;52.88;22.67;;;10.50;99.90;;;;;;4901293;29;20476;-77
2021/12/16 11:40:19;;;;;;;44.05;21.85;;;10.40;99.90;;;;;;4901403;29;20395;-76
2021/12/16 11:43:02;;;;;;;49.55;21.25;;;10.40;99.90;;;;;;4880172;29;20036;-78
2021/12/16 11:45:35;;;;;;;55.72;22.13;;;10.40;99.90;;;;;;4912225;29;20040;-78
2021/12/16 11:48:02;;;;;;;49.00;22.48;;;10.40;99.90;;;;;;4909233;29;20040;-78
2021/12/16 11:50:41;;;;;;;49.40;22.35;;;10.40;99.90;;;;;;4872223;29;20063;-79
2021/12/16 11:53:09;;;;;;;50.95;22.95;;;10.50;99.90;;;;;;4891958;29;20047;-78
2021/12/16 11:55:38;;;;;;;42.58;20.45;;;10.50;99.90;;;;;;4902878;29;20048;-78
2021/12/16 11:58:07;;;;;;;44.90;22.30;;;10.50;99.90;;;;;;4919642;29;20365;-79
2021/12/16 12:00:39;;;;;;;39.05;22.15;;;10.60;99.90;;;;;;4892075;29;20443;-77
2021/12/16 12:03:07;;;;;;;;;;;10.60;99.90;;;;;;4889455;29;20345;-79
2021/12/16 12:05:49;;;;;;;43.83;25.60;;;10.70;99.90;;;;;;4908987;29;19919;-78
2021/12/16 12:08:27;;;;;;;50.42;24.20;;;10.70;99.90;;;;;;4914186;29;20047;-78
2021/12/16 12:11:06;;;;;;;40.50;20.73;;;10.70;99.90;;;;;;4875167;29;20044;-78
2021/12/16 12:13:42;;;;;;;45.35;22.10;;;10.70;99.90;;;;;;4887087;29;20037;-77
2021/12/16 12:16:34;;;;;;;44.03;19.33;;;10.70;99.90;;;;;;4881217;29;20032;-77
2021/12/16 12:19:18;;;;;;;44.60;20.13;;;10.70;99.90;;;;;;4901538;29;20894;-77
2021/12/16 12:22:04;;;;;;;39.33;20.38;;;10.70;99.90;;;;;;4917384;29;20051;-77
2021/12/16 12:24:42;;;;;;;40.38;20.75;;;10.80;99.90;;;;;;4919173;29;20033;-77
2021/12/16 12:27:12;;;;;;;37.22;20.30;;;10.70;99.90;;;;;;4892990;29;20044;-77
2021/12/16 12:29:43;;;;;;;41.83;20.55;;;10.70;99.90;;;;;;4908524;29;20449;-77
2021/12/16 12:32:22;;;;;;;37.63;21.15;;;10.80;99.90;;;;;;4906173;29;20391;-77
2021/12/16 12:35:03;;;;;;;44.53;22.70;;;10.80;99.90;;;;;;4913845;29;20550;-77
2021/12/16 12:37:34;;;;;;;37.97;20.45;;;10.80;99.90;;;;;;4885282;29;20483;-77
2021/12/16 12:40:06;;;;;;;40.67;21.38;;;10.90;99.90;;;;;;4882567;29;20134;-78
2021/12/16 12:42:34;;;;;;;50.67;22.52;;;10.90;99.90;;;;;;4884602;29;20040;-77
2021/12/16 12:45:06;;;;;;;36.20;21.00;;;11.00;99.90;;;;;;4897701;29;20043;-77
2021/12/16 12:47:35;;;;;;;33.47;19.42;;;11.00;99.90;;;;;;4890996;29;20045;-74
2021/12/16 12:50:21;;;;;;;35.20;20.73;;;11.00;99.90;;;;;;4907155;29;20040;-77
2021/12/16 12:52:51;;;;;;;40.08;20.35;;;10.90;99.90;;;;;;4912235;29;20044;-77
2021/12/16 12:55:33;;;;;;;46.70;21.02;;;10.90;99.90;;;;;;4874174;29;20044;-77
2021/12/16 12:58:05;;;;;;;46.58;21.85;;;10.90;99.90;;;;;;4913964;29;20040;-77
2021/12/16 13:00:41;;;;;;;32.83;20.40;;;10.80;99.90;;;;;;4890302;29;20043;-77
2021/12/16 13:03:17;;;;;;;39.80;20.60;;;10.80;99.90;;;;;;4878424;29;20032;-77
2021/12/16 13:06:02;;;;;;;38.33;22.20;;;10.80;99.90;;;;;;4911049;29;20032;-77
2021/12/16 13:08:35;;;;;;;40.13;20.00;;;10.90;99.90;;;;;;4912794;29;20044;-77
2021/12/16 13:11:11;;;;;;;48.53;23.05;;;10.80;99.90;;;;;;4912553;29;20044;-77
2021/12/16 13:14:22;;;;;;;41.10;23.85;;;10.90;99.90;;;;;;4917073;29;20495;-79
2021/12/16 13:17:15;;;;;;;43.25;23.73;;;10.90;99.90;;;;;;4892513;29;20043;-78
2021/12/16 13:28:13;;;;;;;36.38;20.10;;;10.80;99.90;;;;;;4893492;29;20044;-77
2021/12/16 13:30:52;;;;;;;36.08;22.38;;;10.70;99.90;;;;;;4888604;29;20509;-77
2021/12/16 13:33:23;;;;;;;37.75;20.52;;;10.70;99.90;;;;;;4850461;29;20404;-76
2021/12/16 13:36:03;;;;;;;38.00;22.25;;;10.70;99.90;;;;;;4917694;29;20044;-77
2021/12/16 13:38:48;;;;;;;37.25;21.15;;;10.70;99.90;;;;;;4874553;29;20039;-76
2021/12/16 13:41:20;;;;;;;35.58;21.17;;;10.70;99.90;;;;;;4888781;29;20040;-76
2021/12/16 13:44:12;;;;;;;37.03;21.03;;;10.70;99.90;;;;;;4872796;29;20032;-76
2021/12/16 13:47:03;;;;;;;42.70;22.70;;;10.70;99.90;;;;;;4891653;29;20277;-76
2021/12/16 14:03:29;;;;;;;36.10;20.15;;;10.70;99.90;;;;;;4916970;29;20036;-76
2021/12/16 14:09:16;;;;;;;42.13;21.02;;;10.60;99.90;;;;;;4837414;29;21231;-77
2021/12/16 14:15:08;;;;;;;38.55;21.70;;;10.50;99.90;;;;;;4887178;29;20044;-79
2021/12/16 14:17:52;;;;;;;40.28;21.67;;;10.50;99.90;;;;;;4914248;29;20040;-79
2021/12/16 14:23:19;;;;;;;40.28;21.85;;;10.40;99.90;;;;;;4898040;29;20036;-79
2021/12/16 14:26:13;;;;;;;38.38;21.50;;;10.40;99.90;;;;;;4893414;29;20044;-77
2021/12/16 14:37:19;;;;;;;43.28;22.08;;;10.40;99.90;;;;;;4892653;29;20297;-77
2021/12/16 14:45:18;;;;;;;41.33;21.65;;;10.30;99.90;;;;;;4916303;29;20039;-76
2021/12/16 14:50:21;;;;;;;46.10;21.70;;;10.30;99.90;;;;;;4908316;29;20048;-78
2021/12/16 14:52:47;;;;;;;42.75;20.65;;;10.20;99.90;;;;;;4876044;29;20040;-76
2021/12/16 14:55:18;;;;;;;49.55;21.58;;;10.20;99.90;;;;;;4875659;29;20044;-76
2021/12/16 14:57:48;;;;;;;45.42;22.60;;;10.20;99.90;;;;;;4913871;29;20040;-77
2021/12/16 15:00:31;;;;;;;49.85;23.10;;;10.20;99.90;;;;;;4888847;29;20027;-77
2021/12/16 15:03:02;;;;;;;38.92;20.50;;;10.10;99.90;;;;;;4909661;29;20039;-77
2021/12/16 15:05:44;;;;;;;48.38;24.00;;;10.10;99.90;;;;;;4891831;29;20044;-77
2021/12/16 15:08:38;;;;;;;51.85;22.00;;;10.10;99.90;;;;;;4909290;29;20413;-78
2021/12/16 15:11:09;;;;;;;52.15;21.10;;;10.10;99.90;;;;;;4909427;29;20917;-77
2021/12/16 15:14:02;;;;;;;52.47;22.13;;;10.10;99.90;;;;;;4893967;29;20036;-78
2021/12/16 15:44:12;;;;;;;48.00;19.77;;;9.60;99.90;;;;;;4891732;29;20044;-77
2021/12/16 15:46:40;;;;;;;36.38;18.50;;;9.60;99.90;;;;;;4910551;29;20407;-78
2021/12/16 15:49:07;;;;;;;41.17;18.23;;;9.50;99.90;;;;;;4873178;29;20113;-78
2021/12/16 15:51:34;;;;;;;39.30;17.85;;;9.60;99.90;;;;;;4908597;29;20036;-78
2021/12/16 15:54:01;;;;;;;51.53;18.52;;;9.50;99.90;;;;;;4892736;29;20039;-77
2021/12/16 15:56:38;;;;;;;74.07;19.73;;;9.50;99.90;;;;;;4910932;29;20044;-78
2021/12/16 15:59:08;;;;;;;53.22;19.75;;;9.50;99.90;;;;;;4887096;29;20028;-76
2021/12/16 16:01:45;;;;;;;47.95;21.05;;;9.50;99.90;;;;;;4893623;29;20504;-77
2021/12/16 16:04:26;;;;;;;61.95;20.70;;;9.50;99.90;;;;;;4907845;29;20388;-77
2021/12/16 16:06:59;;;;;;;55.63;19.13;;;9.50;99.90;;;;;;4893565;29;20028;-79
2021/12/16 16:09:35;;;;;;;90.00;22.58;;;9.50;99.90;;;;;;4908565;29;20047;-79
2021/12/16 16:12:03;;;;;;;55.15;20.40;;;9.50;99.90;;;;;;4882674;29;20036;-78
2021/12/16 16:14:32;;;;;;;65.07;19.33;;;9.50;99.90;;;;;;4875660;29;20131;-78
2021/12/16 16:17:00;;;;;;;62.72;19.48;;;9.50;99.90;;;;;;4892653;29;20284;-78
2021/12/16 16:19:34;;;;;;;66.32;21.15;;;9.50;99.90;;;;;;4914061;29;20035;-78
2021/12/16 16:22:03;;;;;;;46.50;18.50;;;9.50;99.90;;;;;;4885342;29;20044;-78
2021/12/16 16:24:36;;;;;;;68.85;20.48;;;9.50;99.90;;;;;;4910028;29;20037;-80
2021/12/16 16:27:07;;;;;;;76.57;19.90;;;9.50;99.90;;;;;;4890318;29;20488;-78
2021/12/16 16:29:35;;;;;;;50.33;18.70;;;9.60;99.90;;;;;;4865320;29;20044;-78
2021/12/16 16:32:04;;;;;;;58.33;21.05;;;9.60;99.90;;;;;;4908336;29;20079;-76
2021/12/16 16:34:39;;;;;;;53.88;21.63;;;9.60;99.90;;;;;;4904363;29;20043;-78
2021/12/16 16:37:07;;;;;;;63.30;26.15;;;9.60;99.90;;;;;;4879597;29;20044;-78
2021/12/16 16:39:40;;;;;;;50.63;23.73;;;9.60;99.90;;;;;;4888297;29;20048;-78
2021/12/16 16:42:13;;;;;;;56.33;26.10;;;9.60;99.90;;;;;;4909187;29;20036;-78
2021/12/16 16:44:45;;;;;;;52.72;25.95;;;9.60;99.90;;;;;;4890583;29;20037;-79
2021/12/16 16:47:17;;;;;;;65.03;26.80;;;9.60;99.90;;;;;;4893198;29;20443;-78
2021/12/16 16:49:49;;;;;;;44.85;23.90;;;9.60;99.90;;;;;;4882821;29;20048;-78
2021/12/16 16:52:27;;;;;;;52.38;24.10;;;9.60;99.90;;;;;;4907256;29;20502;-79
2021/12/16 16:55:11;;;;;;;52.55;24.70;;;9.60;99.90;;;;;;4896707;29;20032;-78
2021/12/16 16:57:45;;;;;;;50.28;25.95;;;9.60;99.90;;;;;;4912930;29;20391;-76
2021/12/16 17:00:37;;;;;;;53.05;24.80;;;9.60;99.90;;;;;;4913942;29;20036;-77
2021/12/16 17:03:13;;;;;;;47.75;23.50;;;9.60;99.90;;;;;;4885060;29;20037;-77
2021/12/16 17:05:40;;;;;;;48.95;22.40;;;9.50;99.90;;;;;;4914135;29;20063;-76
2021/12/16 17:08:18;;;;;;;44.88;22.27;;;9.50;99.90;;;;;;4915729;29;20413;-77